Time;durP1;ratioP1;P1;durP2;ratioP2;P2;SDS_P1;SDS_P2;PMS_P1;PMS_P2;Temp;Humidity;BMP_temperature;BMP_pressure;BME280_temperature;BME280_humidity;BME280_pressure;Samples;Min_cycle;Max_cycle;Signal;HPM_P1;HPM_P2
2023/10/25 00:01:14;;;;;;;0.40;0.30;;;;;;;15.59;100.00;95132.16;5112547;28;20428;-58
2023/10/25 00:03:43;;;;;;;0.50;0.33;;;;;;;15.81;100.00;95129.47;5112167;28;20432;-58
2023/10/25 00:06:11;;;;;;;1.03;0.73;;;;;;;15.77;100.00;95128.50;5111758;28;20420;-58
2023/10/25 00:08:39;;;;;;;0.50;0.30;;;;;;;15.72;100.00;95125.16;5111624;28;20427;-58
2023/10/25 00:11:09;;;;;;;0.60;0.47;;;;;;;15.24;100.00;95123.09;5110905;28;20477;-58
2023/10/25 00:13:38;;;;;;;0.50;0.40;;;;;;;15.19;100.00;95122.41;5112449;28;20873;-58
2023/10/25 00:16:06;;;;;;;0.90;0.40;;;;;;;15.16;100.00;95118.47;5112200;28;20993;-58
2023/10/25 00:18:35;;;;;;;0.90;0.50;;;;;;;15.47;100.00;95121.25;5112305;28;20427;-58
2023/10/25 00:21:03;;;;;;;14.13;0.63;;;;;;;15.68;100.00;95124.22;5112025;28;20450;-58
2023/10/25 00:23:31;;;;;;;0.60;0.60;;;;;;;15.55;100.00;95125.06;5111942;28;20481;-58
2023/10/25 00:26:00;;;;;;;0.50;0.40;;;;;;;15.16;100.00;95117.69;5111716;28;20415;-58
2023/10/25 00:28:29;;;;;;;1.13;0.83;;;;;;;15.56;100.00;95129.31;5111900;28;20488;-58
2023/10/25 00:30:58;;;;;;;0.90;0.60;;;;;;;15.22;100.00;95143.97;5111559;28;20798;-58
2023/10/25 00:33:26;;;;;;;0.40;0.30;;;;;;;15.44;100.00;95142.38;5112132;28;20427;-58
2023/10/25 00:35:54;;;;;;;3.70;0.60;;;;;;;14.93;100.00;95132.88;5111146;28;20486;-58
2023/10/25 00:38:23;;;;;;;10.40;1.80;;;;;;;14.79;100.00;95131.31;5111540;28;20431;-58
2023/10/25 00:40:51;;;;;;;0.40;0.33;;;;;;;15.01;100.00;95126.81;5111188;28;20973;-58
2023/10/25 00:43:21;;;;;;;0.60;0.60;;;;;;;14.91;100.00;95137.72;5111529;28;20428;-57
2023/10/25 00:46:02;;;;;;;1.00;0.40;;;;;;;15.07;100.00;95130.19;5110985;28;20454;-58
2023/10/25 00:48:31;;;;;;;0.70;0.70;;;;;;;15.05;100.00;95117.13;5111431;28;20427;-57
2023/10/25 00:51:01;;;;;;;0.50;0.40;;;;;;;15.13;100.00;95094.25;5112062;28;20438;-58
2023/10/25 00:53:32;;;;;;;0.90;0.50;;;;;;;15.07;100.00;95133.63;5111960;28;20432;-58
2023/10/25 00:56:02;;;;;;;0.57;0.57;;;;;;;15.06;100.00;95140.06;5111757;28;20423;-58
2023/10/25 00:58:32;;;;;;;0.40;0.30;;;;;;;15.40;100.00;95144.09;5111602;28;20446;-58
2023/10/25 01:01:02;;;;;;;12.07;0.67;;;;;;;15.06;100.00;95137.38;5112102;28;20431;-58
2023/10/25 01:03:30;;;;;;;0.57;0.47;;;;;;;15.21;100.00;95115.69;5114707;28;20431;-58
2023/10/25 01:05:59;;;;;;;0.70;0.67;;;;;;;15.25;100.00;95121.22;5115948;28;20457;-58
2023/10/25 01:08:27;;;;;;;0.50;0.37;;;;;;;15.19;100.00;95120.53;5115640;28;20428;-58
2023/10/25 01:10:56;;;;;;;0.70;0.60;;;;;;;14.84;100.00;95105.34;5115462;28;20467;-58
2023/10/25 01:13:24;;;;;;;0.77;0.37;;;;;;;14.60;100.00;95051.44;5115750;28;20432;-58
2023/10/25 01:15:53;;;;;;;0.70;0.40;;;;;;;15.18;100.00;95115.50;5115321;28;20458;-59
2023/10/25 01:18:23;;;;;;;0.60;0.30;;;;;;;15.21;100.00;95109.56;5115023;28;20845;-59
2023/10/25 01:20:51;;;;;;;0.57;0.50;;;;;;;15.38;100.00;95112.34;5115463;28;20484;-59
2023/10/25 01:23:21;;;;;;;0.60;0.43;;;;;;;14.90;100.00;95114.03;5115217;28;20508;-58
2023/10/25 01:25:49;;;;;;;0.77;0.77;;;;;;;15.09;100.00;95111.97;5114919;28;20427;-59
2023/10/25 01:28:18;;;;;;;0.70;0.50;;;;;;;15.18;100.00;95110.16;5115169;28;20430;-58
2023/10/25 01:30:46;;;;;;;0.53;0.40;;;;;;;15.28;100.00;95102.69;5115257;28;20428;-58
2023/10/25 01:33:15;;;;;;;0.50;0.50;;;;;;;15.41;100.00;95092.25;5115107;28;20504;-58
2023/10/25 01:35:43;;;;;;;0.40;0.30;;;;;;;14.91;100.00;95105.69;5115193;28;20851;-57
2023/10/25 01:38:12;;;;;;;2.40;0.70;;;;;;;14.97;100.00;95112.50;5115163;28;20434;-57
2023/10/25 01:40:41;;;;;;;0.60;0.30;;;;;;;15.16;100.00;95104.31;5115184;28;20896;-57
2023/10/25 01:43:10;;;;;;;0.67;0.67;;;;;;;14.84;100.00;95100.00;5115052;28;20435;-57
2023/10/25 01:45:38;;;;;;;0.50;0.40;;;;;;;15.02;100.00;95111.59;5115479;28;20818;-57
2023/10/25 01:48:08;;;;;;;0.50;0.30;;;;;;;15.00;100.00;95109.22;5115249;28;20431;-56
2023/10/25 01:50:36;;;;;;;0.80;0.80;;;;;;;15.17;100.00;95108.59;5114967;28;20763;-57
2023/10/25 01:53:05;;;;;;;1.33;0.50;;;;;;;15.20;100.00;95110.66;5115047;28;20416;-57
2023/10/25 01:55:33;;;;;;;0.40;0.30;;;;;;;15.18;100.00;95108.28;5114841;28;20531;-58
2023/10/25 01:58:03;;;;;;;0.93;0.50;;;;;;;14.75;100.00;95106.34;5114779;28;20423;-57
2023/10/25 02:00:31;;;;;;;0.63;0.63;;;;;;;15.00;100.00;95103.88;5114116;28;20444;-58
2023/10/25 02:02:59;;;;;;;0.70;0.50;;;;;;;15.19;100.00;95107.19;5114464;28;20951;-57
2023/10/25 02:05:28;;;;;;;0.60;0.60;;;;;;;15.20;100.00;95113.31;5114826;28;20419;-58
2023/10/25 02:07:57;;;;;;;1.03;1.03;;;;;;;15.13;100.00;95108.38;5114767;28;20503;-57
2023/10/25 02:10:25;;;;;;;2.23;1.00;;;;;;;14.78;100.00;95119.06;5114781;28;20938;-57
2023/10/25 02:12:53;;;;;;;0.50;0.30;;;;;;;14.92;100.00;95112.63;5114422;28;20426;-57
2023/10/25 02:15:23;;;;;;;0.60;0.50;;;;;;;14.66;100.00;95108.13;5114381;28;20519;-58
2023/10/25 02:17:52;;;;;;;0.70;0.60;;;;;;;14.17;100.00;95106.16;5114368;28;20420;-58
2023/10/25 02:20:20;;;;;;;0.60;0.50;;;;;;;14.07;100.00;95111.69;5113154;28;20423;-57
2023/10/25 02:22:48;;;;;;;0.40;0.30;;;;;;;14.53;100.00;95105.19;5114507;28;20518;-57
2023/10/25 02:25:17;;;;;;;0.67;0.63;;;;;;;14.29;100.00;95098.47;5114565;28;20431;-57
2023/10/25 02:27:45;;;;;;;0.60;0.50;;;;;;;14.45;100.00;95107.75;5114392;28;20501;-57
2023/10/25 02:30:14;;;;;;;0.50;0.30;;;;;;;14.47;100.00;95113.59;5113796;28;20423;-57
2023/10/25 02:32:43;;;;;;;0.63;0.47;;;;;;;14.43;100.00;95093.94;5114214;28;20438;-57
2023/10/25 02:35:12;;;;;;;0.67;0.60;;;;;;;13.97;100.00;95086.81;5112794;28;20474;-57
2023/10/25 02:37:41;;;;;;;0.87;0.70;;;;;;;14.30;100.00;95108.03;5114124;28;20420;-57
2023/10/25 02:40:10;;;;;;;1.30;1.30;;;;;;;14.37;100.00;95113.81;5113905;28;20431;-57
2023/10/25 02:42:41;;;;;;;0.50;0.40;;;;;;;14.30;100.00;95106.16;5114108;28;20415;-58
2023/10/25 02:45:10;;;;;;;0.50;0.37;;;;;;;14.09;100.00;95057.00;5114229;28;20427;-57
2023/10/25 02:47:38;;;;;;;0.50;0.33;;;;;;;13.54;100.00;94955.00;5114314;28;20412;-58
2023/10/25 02:50:09;;;;;;;0.50;0.40;;;;;;;14.59;100.00;95101.34;5112813;28;20488;-57
2023/10/25 02:52:37;;;;;;;0.60;0.60;;;;;;;14.56;100.00;95095.81;5113698;28;20423;-58
2023/10/25 02:55:06;;;;;;;3.50;1.30;;;;;;;14.61;100.00;95083.16;5113830;28;20471;-58
2023/10/25 02:57:35;;;;;;;0.87;0.77;;;;;;;14.66;100.00;95098.25;5113923;28;20415;-58
2023/10/25 03:00:06;;;;;;;0.83;0.30;;;;;;;14.44;100.00;95099.00;5113998;28;21059;-58
2023/10/25 03:02:34;;;;;;;2.43;0.77;;;;;;;14.33;100.00;95084.28;5113493;28;20431;-58
2023/10/25 03:05:03;;;;;;;0.57;0.40;;;;;;;14.57;100.00;95095.50;5113564;28;20431;-58
2023/10/25 03:07:33;;;;;;;0.70;0.67;;;;;;;14.64;100.00;95097.78;5113545;28;20423;-58
2023/10/25 03:10:02;;;;;;;0.50;0.30;;;;;;;14.75;100.00;95095.69;5111806;28;20424;-58
2023/10/25 03:12:32;;;;;;;2.53;0.60;;;;;;;14.52;100.00;95100.94;5112361;28;20496;-58
2023/10/25 03:15:01;;;;;;;2.30;0.50;;;;;;;14.75;100.00;95093.78;5112160;28;20424;-58
2023/10/25 03:17:30;;;;;;;1.23;1.17;;;;;;;14.56;100.00;95099.25;5113128;28;20431;-58
2023/10/25 03:20:00;;;;;;;2.70;0.40;;;;;;;14.56;100.00;95101.94;5112843;28;20470;-58
2023/10/25 03:22:29;;;;;;;0.50;0.30;;;;;;;14.65;100.00;95104.66;5112972;28;20428;-58
2023/10/25 03:24:58;;;;;;;2.83;2.63;;;;;;;14.39;100.00;95060.97;5112138;28;20443;-58
2023/10/25 03:27:27;;;;;;;1.13;0.50;;;;;;;14.60;100.00;95088.78;5112904;28;21012;-58
2023/10/25 03:29:55;;;;;;;7.43;0.60;;;;;;;14.61;100.00;95085.81;5112119;28;20435;-58
2023/10/25 03:32:23;;;;;;;0.50;0.40;;;;;;;14.57;100.00;95081.41;5112873;28;20935;-58
2023/10/25 03:34:52;;;;;;;0.43;0.30;;;;;;;14.61;100.00;95085.03;5113094;28;20819;-58
2023/10/25 03:37:20;;;;;;;0.50;0.30;;;;;;;14.58;100.00;95081.09;5112633;28;20483;-58
2023/10/25 03:39:49;;;;;;;1.50;1.43;;;;;;;14.60;100.00;95081.56;5113025;28;20430;-58
2023/10/25 03:42:19;;;;;;;1.00;1.00;;;;;;;14.65;100.00;95072.66;5112658;28;20476;-58
2023/10/25 03:44:47;;;;;;;0.60;0.40;;;;;;;14.46;100.00;95080.03;5112399;28;20428;-58
2023/10/25 03:47:15;;;;;;;6.00;1.03;;;;;;;14.46;100.00;95088.81;5111720;28;20917;-58
2023/10/25 03:49:46;;;;;;;2.57;0.60;;;;;;;14.35;100.00;95086.63;5111181;28;20931;-58
2023/10/25 03:52:14;;;;;;;1.37;1.00;;;;;;;14.35;100.00;95084.75;5111967;28;20431;-58
2023/10/25 03:54:42;;;;;;;2.83;1.27;;;;;;;14.42;100.00;95092.38;5111470;28;20431;-58
2023/10/25 03:57:11;;;;;;;0.40;0.30;;;;;;;14.37;100.00;95087.91;5111982;28;20463;-58
2023/10/25 03:59:41;;;;;;;4.10;1.17;;;;;;;14.39;100.00;95082.31;5112078;28;20458;-59
2023/10/25 04:02:09;;;;;;;2.03;1.90;;;;;;;14.04;100.00;95075.75;5111228;28;21122;-58
2023/10/25 04:04:37;;;;;;;2.90;1.17;;;;;;;13.98;100.00;95077.75;5112490;28;20482;-58
2023/10/25 04:07:06;;;;;;;1.00;1.00;;;;;;;14.12;100.00;95064.41;5112075;28;20422;-59
2023/10/25 04:09:34;;;;;;;1.43;1.33;;;;;;;14.13;100.00;95057.22;5112215;28;20478;-58
2023/10/25 04:12:02;;;;;;;0.93;0.93;;;;;;;14.21;100.00;95051.97;5112569;28;20499;-58
2023/10/25 04:14:31;;;;;;;1.20;1.10;;;;;;;14.20;100.00;95052.25;5112263;28;20862;-58
2023/10/25 04:17:00;;;;;;;0.80;0.50;;;;;;;14.02;100.00;95035.31;5112058;28;20518;-57
2023/10/25 04:19:29;;;;;;;2.03;1.00;;;;;;;14.14;100.00;95058.81;5111988;28;20442;-57
2023/10/25 04:21:57;;;;;;;0.50;0.40;;;;;;;13.81;100.00;95061.53;5110444;28;20423;-58
2023/10/25 04:24:26;;;;;;;0.47;0.40;;;;;;;13.92;100.00;95057.59;5111635;28;20924;-57
2023/10/25 04:26:54;;;;;;;1.63;1.53;;;;;;;13.78;100.00;95056.81;5111842;28;20464;-57
2023/10/25 04:29:22;;;;;;;0.70;0.70;;;;;;;13.88;100.00;95061.97;5112138;28;20427;-58
2023/10/25 04:31:51;;;;;;;1.63;1.33;;;;;;;13.68;100.00;95059.69;5112036;28;20434;-58
2023/10/25 04:34:21;;;;;;;3.13;1.67;;;;;;;13.65;100.00;95051.47;5111213;28;20431;-58
2023/10/25 04:36:49;;;;;;;0.97;0.60;;;;;;;13.75;100.00;95054.75;5114995;28;20473;-58
2023/10/25 04:39:18;;;;;;;7.63;0.63;;;;;;;13.64;100.00;95049.88;5115839;28;20503;-58
2023/10/25 04:41:46;;;;;;;0.77;0.77;;;;;;;13.88;100.00;95051.31;5115922;28;20423;-58
2023/10/25 04:44:15;;;;;;;1.50;1.30;;;;;;;13.96;100.00;95058.59;5115676;28;20464;-59
2023/10/25 04:46:43;;;;;;;3.90;1.67;;;;;;;14.01;100.00;95055.81;5116806;27;20900;-57
2023/10/25 04:49:11;;;;;;;1.73;1.63;;;;;;;13.79;100.00;95062.91;5134598;27;20589;-58
2023/10/25 04:51:41;;;;;;;3.33;3.10;;;;;;;13.32;100.00;95058.72;5135834;27;20460;-58
2023/10/25 04:54:10;;;;;;;2.10;2.00;;;;;;;13.44;100.00;95060.91;5136114;27;20570;-58
2023/10/25 04:56:38;;;;;;;1.50;1.40;;;;;;;13.40;100.00;95066.03;5135716;27;20462;-57
2023/10/25 04:59:07;;;;;;;1.70;0.90;;;;;;;13.39;100.00;95080.41;5136093;27;20830;-57
2023/10/25 05:01:35;;;;;;;2.60;2.50;;;;;;;13.59;100.00;95065.94;5135322;27;20434;-57
2023/10/25 05:04:04;;;;;;;1.50;1.40;;;;;;;13.65;100.00;95062.13;5135020;27;20438;-57
2023/10/25 05:06:33;;;;;;;4.53;0.63;;;;;;;13.50;100.00;95065.84;5135936;27;20438;-56
2023/10/25 05:09:04;;;;;;;1.47;1.27;;;;;;;13.89;100.00;95060.06;5135431;27;20469;-57
2023/10/25 05:11:35;;;;;;;1.30;1.20;;;;;;;13.76;100.00;95056.31;5135555;27;20434;-57
2023/10/25 05:14:04;;;;;;;0.60;0.50;;;;;;;13.36;100.00;95052.50;5134633;27;20640;-57
2023/10/25 05:16:33;;;;;;;0.80;0.60;;;;;;;13.62;100.00;95052.06;5134758;27;20473;-57
2023/10/25 05:19:02;;;;;;;1.00;0.70;;;;;;;13.36;100.00;95039.19;5136003;27;20461;-58
2023/10/25 05:21:32;;;;;;;0.50;0.40;;;;;;;13.71;100.00;95032.44;5135706;27;20465;-58
2023/10/25 05:24:03;;;;;;;0.90;0.70;;;;;;;13.93;100.00;95034.44;5134729;27;20881;-57
2023/10/25 05:26:32;;;;;;;3.40;0.70;;;;;;;14.13;100.00;95026.03;5135282;27;20469;-58
2023/10/25 05:29:03;;;;;;;0.40;0.40;;;;;;;14.20;100.00;94999.75;5134859;27;20522;-58
2023/10/25 05:31:35;;;;;;;2.20;1.10;;;;;;;14.60;100.00;95011.44;5135615;27;20450;-57
2023/10/25 05:34:05;;;;;;;0.63;0.63;;;;;;;14.48;100.00;95003.97;5134966;27;20525;-59
2023/10/25 05:36:34;;;;;;;0.60;0.50;;;;;;;14.37;100.00;95004.50;5135107;27;20522;-58
2023/10/25 05:39:05;;;;;;;0.73;0.60;;;;;;;14.36;100.00;95008.25;5135105;27;20430;-58
2023/10/25 05:41:39;;;;;;;0.70;0.70;;;;;;;14.46;100.00;95019.47;5135458;27;20886;-57
2023/10/25 05:44:14;;;;;;;2.03;1.03;;;;;;;13.99;100.00;95004.72;5134922;27;20521;-57
2023/10/25 05:46:43;;;;;;;2.50;1.00;;;;;;;14.25;100.00;95012.19;5134064;27;20449;-57
2023/10/25 05:49:11;;;;;;;1.00;0.90;;;;;;;14.20;100.00;95009.63;5134462;27;20470;-58
2023/10/25 05:51:41;;;;;;;0.60;0.57;;;;;;;14.37;100.00;95009.84;5131207;27;20493;-57
2023/10/25 05:54:12;;;;;;;0.70;0.53;;;;;;;14.06;100.00;95019.50;5132414;27;20434;-57
2023/10/25 05:56:41;;;;;;;0.80;0.80;;;;;;;13.70;100.00;95017.56;5134684;27;20519;-57
2023/10/25 05:59:10;;;;;;;0.93;0.70;;;;;;;13.64;100.00;95025.91;5135448;27;20426;-58
2023/10/25 06:01:48;;;;;;;0.60;0.40;;;;;;;13.76;100.00;95019.00;5129309;27;20498;-57
2023/10/25 06:04:19;;;;;;;1.13;0.40;;;;;;;14.06;100.00;95016.84;5111907;27;20442;-57
2023/10/25 06:06:48;;;;;;;0.77;0.77;;;;;;;13.86;100.00;95002.84;5134726;27;21010;-57
2023/10/25 06:09:19;;;;;;;0.50;0.40;;;;;;;13.84;100.00;95028.19;5134776;27;20434;-57
2023/10/25 06:11:48;;;;;;;4.63;1.10;;;;;;;13.88;100.00;95031.84;5133473;27;20431;-57
2023/10/25 06:14:17;;;;;;;0.80;0.80;;;;;;;14.10;100.00;95031.94;5134287;27;20437;-57
2023/10/25 06:16:45;;;;;;;0.67;0.67;;;;;;;13.98;100.00;95050.31;5134583;27;20472;-57
2023/10/25 06:19:14;;;;;;;1.43;0.50;;;;;;;13.76;100.00;95042.22;5134483;27;20443;-57
2023/10/25 06:21:43;;;;;;;2.53;2.33;;;;;;;13.70;100.00;95046.06;5134419;27;20462;-57
2023/10/25 06:24:11;;;;;;;8.33;1.80;;;;;;;13.50;100.00;95006.50;5134412;27;20517;-57
2023/10/25 06:26:41;;;;;;;1.20;1.20;;;;;;;14.08;100.00;95034.13;5133865;27;21101;-57
2023/10/25 06:29:10;;;;;;;2.10;0.83;;;;;;;14.68;100.00;95048.06;5134025;27;20454;-57
2023/10/25 06:31:38;;;;;;;1.50;1.33;;;;;;;14.16;100.00;95006.78;5134298;27;20442;-57
2023/10/25 06:34:07;;;;;;;1.73;1.63;;;;;;;14.38;100.00;95038.84;5132562;27;20464;-57
2023/10/25 06:36:39;;;;;;;1.47;1.37;;;;;;;14.55;100.00;95039.00;5132474;27;20614;-57
2023/10/25 06:39:08;;;;;;;1.17;1.03;;;;;;;14.56;100.00;95045.94;5132871;27;20496;-56
2023/10/25 06:41:37;;;;;;;0.70;0.70;;;;;;;14.74;100.00;95024.72;5131153;27;20495;-56
2023/10/25 06:44:08;;;;;;;0.87;0.87;;;;;;;15.13;100.00;95038.97;5134519;27;20443;-56
2023/10/25 06:46:37;;;;;;;0.70;0.70;;;;;;;15.16;100.00;95038.38;5133622;27;20434;-56
2023/10/25 06:49:07;;;;;;;1.40;0.50;;;;;;;15.51;100.00;95035.97;5133502;27;20442;-57
2023/10/25 06:51:36;;;;;;;0.63;0.57;;;;;;;15.44;100.00;95024.88;5123070;27;20438;-56
2023/10/25 06:54:05;;;;;;;0.80;0.80;;;;;;;15.67;100.00;95015.75;5133849;27;20485;-56
2023/10/25 06:56:34;;;;;;;3.53;0.50;;;;;;;16.15;100.00;95021.91;5133325;27;20860;-56
2023/10/25 06:59:03;;;;;;;2.50;1.13;;;;;;;16.04;100.00;94998.44;5132095;27;20527;-56
2023/10/25 07:01:39;;;;;;;0.60;0.57;;;;;;;16.35;100.00;95009.81;5133910;27;20434;-56
2023/10/25 07:04:13;;;;;;;0.83;0.83;;;;;;;16.19;100.00;95017.50;5134281;27;20433;-57
2023/10/25 07:06:45;;;;;;;0.70;0.60;;;;;;;15.97;100.00;95004.22;5106920;27;20932;-57
2023/10/25 07:09:15;;;;;;;0.60;0.60;;;;;;;15.81;100.00;95011.13;5133508;27;20449;-57
2023/10/25 07:11:44;;;;;;;0.83;0.83;;;;;;;15.78;100.00;95009.84;5134447;27;20438;-57
2023/10/25 07:14:12;;;;;;;1.03;0.90;;;;;;;15.98;100.00;95027.19;5130911;27;20770;-57
2023/10/25 07:16:42;;;;;;;1.57;0.50;;;;;;;15.76;100.00;95009.34;5134209;27;20438;-57
2023/10/25 07:19:10;;;;;;;1.43;1.27;;;;;;;15.97;100.00;95017.59;5133233;27;20502;-57
2023/10/25 07:21:39;;;;;;;1.80;1.70;;;;;;;16.37;100.00;95023.66;5133127;27;20939;-57
2023/10/25 07:24:08;;;;;;;0.80;0.80;;;;;;;16.26;100.00;95012.50;5133216;27;20439;-57
2023/10/25 07:26:36;;;;;;;1.10;0.90;;;;;;;16.05;100.00;94982.09;5133513;27;20474;-57
2023/10/25 07:29:07;;;;;;;3.90;0.60;;;;;;;16.49;100.00;94995.19;5133725;27;20449;-56
2023/10/25 07:31:35;;;;;;;1.00;0.90;;;;;;;16.86;100.00;94995.72;5133194;27;20438;-57
2023/10/25 07:34:05;;;;;;;2.20;2.00;;;;;;;16.76;100.00;95007.53;5133326;27;20939;-57
2023/10/25 07:36:34;;;;;;;3.27;1.40;;;;;;;15.98;100.00;94997.00;5133237;27;20444;-57
2023/10/25 07:39:02;;;;;;;1.20;0.70;;;;;;;16.37;100.00;95012.97;5133225;27;21009;-57
2023/10/25 07:41:31;;;;;;;4.47;3.87;;;;;;;15.94;100.00;95015.53;5133036;27;20495;-56
2023/10/25 07:44:00;;;;;;;0.60;0.50;;;;;;;15.65;100.00;95012.59;5132590;27;20435;-57
2023/10/25 07:46:29;;;;;;;2.23;1.47;;;;;;;16.27;100.00;95040.78;5132874;27;20434;-57
2023/10/25 07:48:57;;;;;;;1.77;1.67;;;;;;;16.59;100.00;95031.63;5132677;27;20819;-57
2023/10/25 07:51:27;;;;;;;2.60;2.20;;;;;;;16.36;100.00;95038.94;5133103;27;20434;-57
2023/10/25 07:53:55;;;;;;;6.27;1.90;;;;;;;16.96;100.00;95052.41;5125746;27;20806;-57
2023/10/25 07:56:24;;;;;;;6.63;1.93;;;;;;;16.70;100.00;95038.22;5128010;27;20439;-57
2023/10/25 07:58:56;;;;;;;2.10;1.07;;;;;;;16.10;100.00;95037.28;5133179;27;20710;-57
2023/10/25 08:01:24;;;;;;;0.70;0.67;;;;;;;16.79;100.00;95048.94;5128387;27;20443;-57
2023/10/25 08:03:53;;;;;;;1.23;0.97;;;;;;;16.14;100.00;95039.03;5126356;27;20445;-57
2023/10/25 08:06:21;;;;;;;1.30;1.20;;;;;;;15.41;100.00;95028.94;5106983;27;20458;-57
2023/10/25 08:08:51;;;;;;;3.17;1.73;;;;;;;15.96;100.00;95037.41;5132557;27;20491;-56
2023/10/25 08:11:19;;;;;;;1.17;0.90;;;;;;;16.40;100.00;95047.13;5132208;27;21112;-58
2023/10/25 08:13:48;;;;;;;11.60;2.17;;;;;;;15.94;100.00;95052.94;5131923;27;20438;-57
2023/10/25 08:16:16;;;;;;;1.83;1.37;;;;;;;15.74;100.00;95038.25;5133019;27;20829;-57
2023/10/25 08:18:44;;;;;;;1.93;1.10;;;;;;;16.27;100.00;95051.50;5132083;27;20488;-56
2023/10/25 08:21:14;;;;;;;0.60;0.50;;;;;;;16.70;100.00;95051.59;5132190;27;20450;-56
2023/10/25 08:23:45;;;;;;;2.60;2.40;;;;;;;16.61;100.00;95033.97;5132150;27;20437;-56
2023/10/25 08:26:15;;;;;;;1.77;1.67;;;;;;;16.58;100.00;95045.28;5131989;28;20481;-57
2023/10/25 08:28:43;;;;;;;1.40;1.30;;;;;;;16.58;100.00;95030.03;5132153;28;20476;-57
2023/10/25 08:31:12;;;;;;;4.00;1.80;;;;;;;16.80;100.00;95042.50;5132593;28;20943;-57
2023/10/25 08:33:41;;;;;;;0.80;0.80;;;;;;;17.27;100.00;95032.69;5126528;28;20446;-57
2023/10/25 08:36:09;;;;;;;8.10;1.33;;;;;;;17.03;100.00;95019.78;5124515;28;20443;-57
2023/10/25 08:38:38;;;;;;;1.13;0.70;;;;;;;17.38;100.00;95037.38;5125406;28;20481;-58
2023/10/25 08:41:08;;;;;;;0.50;0.40;;;;;;;17.70;99.53;95039.56;5132589;28;20939;-57
2023/10/25 08:43:39;;;;;;;0.80;0.50;;;;;;;17.61;99.96;95019.22;5132333;28;20449;-57
2023/10/25 08:46:09;;;;;;;3.97;0.87;;;;;;;17.35;100.00;95027.34;5132381;28;20494;-57
2023/10/25 08:48:37;;;;;;;1.73;1.63;;;;;;;17.09;100.00;95018.53;5132359;28;20455;-57
2023/10/25 08:51:06;;;;;;;0.70;0.70;;;;;;;17.08;100.00;95017.75;5132778;28;20438;-57
2023/10/25 08:53:36;;;;;;;0.50;0.40;;;;;;;16.97;100.00;94952.25;5131958;28;20442;-58
2023/10/25 08:56:05;;;;;;;0.60;0.50;;;;;;;17.48;100.00;95012.16;5132413;28;20438;-57
2023/10/25 08:58:33;;;;;;;1.53;1.40;;;;;;;17.70;100.00;95018.13;5132031;28;20497;-57
2023/10/25 09:01:03;;;;;;;0.97;0.97;;;;;;;18.15;95.84;95014.91;5132052;28;20446;-57
2023/10/25 09:03:39;;;;;;;0.50;0.40;;;;;;;18.67;90.18;95018.13;5131766;28;20438;-57
2023/10/25 09:06:09;;;;;;;0.90;0.70;;;;;;;18.50;89.76;95000.22;5131774;28;20515;-58
2023/10/25 09:08:39;;;;;;;1.00;0.80;;;;;;;17.97;94.85;95030.31;5132342;28;20436;-57
2023/10/25 09:11:09;;;;;;;0.77;0.73;;;;;;;18.11;94.96;95012.13;5131780;28;20521;-57
2023/10/25 09:13:41;;;;;;;1.70;1.60;;;;;;;18.47;90.55;95005.47;5132039;28;20438;-58
2023/10/25 09:16:12;;;;;;;1.43;0.70;;;;;;;18.98;85.32;94995.09;5131559;28;20518;-58
2023/10/25 09:18:42;;;;;;;0.70;0.70;;;;;;;18.82;84.63;94978.00;5131801;28;20509;-58
2023/10/25 09:21:10;;;;;;;1.43;1.07;;;;;;;18.82;86.99;94994.13;5131890;27;20438;-58
2023/10/25 09:23:42;;;;;;;0.60;0.53;;;;;;;18.81;87.15;94987.19;5133905;27;20449;-58
2023/10/25 09:26:14;;;;;;;2.30;2.20;;;;;;;19.31;85.40;94987.03;5115504;28;20471;-59
2023/10/25 09:28:45;;;;;;;1.83;1.27;;;;;;;19.22;85.79;94980.97;5131632;27;20513;-58
2023/10/25 09:31:26;;;;;;;0.57;0.40;;;;;;;19.09;84.29;94967.81;5135783;27;20457;-56
2023/10/25 09:33:57;;;;;;;2.93;2.73;;;;;;;18.71;86.18;94971.50;5135659;27;20530;-57
2023/10/25 09:36:26;;;;;;;1.73;1.17;;;;;;;19.06;85.58;94979.22;5135361;27;20499;-58
2023/10/25 09:38:56;;;;;;;1.73;1.27;;;;;;;19.18;85.72;94955.88;5135281;27;20473;-58
2023/10/25 09:41:26;;;;;;;2.33;1.77;;;;;;;19.48;82.81;94954.63;5135567;27;20471;-58
2023/10/25 09:44:01;;;;;;;1.27;1.27;;;;;;;20.15;80.02;94964.88;5109533;27;20825;-57
2023/10/25 09:46:33;;;;;;;0.70;0.70;;;;;;;20.00;79.12;94957.47;5135596;27;20438;-57
2023/10/25 09:49:06;;;;;;;5.70;1.50;;;;;;;20.36;77.74;94953.22;5135208;27;20438;-56
2023/10/25 09:51:44;;;;;;;0.77;0.77;;;;;;;20.59;76.99;94946.22;5134883;27;20434;-56
2023/10/25 09:54:13;;;;;;;7.93;1.43;;;;;;;21.62;75.04;94944.38;5134937;27;20434;-56
2023/10/25 09:56:43;;;;;;;1.43;0.93;;;;;;;22.09;72.17;94947.88;5134685;27;20793;-55
2023/10/25 09:59:13;;;;;;;1.73;1.50;;;;;;;22.64;70.98;94930.63;5135529;27;20523;-56
2023/10/25 10:01:43;;;;;;;1.33;0.70;;;;;;;22.74;68.32;94927.34;5134868;27;21001;-61
2023/10/25 10:04:17;;;;;;;3.00;0.80;;;;;;;23.18;68.97;94933.22;5123507;27;20531;-59
2023/10/25 10:06:56;;;;;;;0.67;0.60;;;;;;;23.98;62.93;94917.63;5134942;27;20438;-59
2023/10/25 10:09:33;;;;;;;0.67;0.50;;;;;;;23.97;63.08;94918.00;5134743;27;20458;-59
2023/10/25 10:12:05;;;;;;;0.73;0.73;;;;;;;24.00;61.96;94923.47;5135130;27;20430;-59
2023/10/25 10:14:35;;;;;;;0.50;0.50;;;;;;;23.91;60.88;94897.78;5134745;27;20963;-59
2023/10/25 10:17:08;;;;;;;4.93;0.70;;;;;;;24.32;60.13;94910.41;5134717;27;20435;-61
2023/10/25 10:19:41;;;;;;;2.70;1.03;;;;;;;23.74;60.51;94895.59;5134670;27;20477;-62
2023/10/25 10:22:11;;;;;;;0.77;0.77;;;;;;;23.48;60.71;94901.72;5134188;27;20491;-62
2023/10/25 10:24:44;;;;;;;6.90;2.50;;;;;;;23.24;62.11;94888.53;5123076;27;20445;-61
2023/10/25 10:27:14;;;;;;;0.97;0.63;;;;;;;24.31;60.78;94906.13;5132268;27;20462;-61
2023/10/25 10:29:44;;;;;;;1.70;0.83;;;;;;;24.56;58.27;94892.94;5134105;27;20944;-62
2023/10/25 10:32:15;;;;;;;3.23;0.97;;;;;;;24.53;58.66;94886.34;5133915;27;20466;-62
2023/10/25 10:34:45;;;;;;;0.40;0.30;;;;;;;25.16;56.68;94872.75;5133703;27;20442;-63
2023/10/25 10:37:16;;;;;;;1.37;1.10;;;;;;;25.27;56.88;94868.19;5134015;27;20442;-65
2023/10/25 10:40:13;;;;;;;0.50;0.40;;;;;;;25.86;55.49;94878.06;5134132;27;20543;-64
2023/10/25 10:42:42;;;;;;;0.70;0.50;;;;;;;25.71;55.07;94870.97;5134514;27;20434;-64
2023/10/25 10:45:19;;;;;;;1.80;0.90;;;;;;;25.70;54.67;94855.81;5134123;27;20510;-65
2023/10/25 10:47:53;;;;;;;0.60;0.50;;;;;;;25.32;54.24;94853.53;5124057;27;20439;-63
2023/10/25 10:50:23;;;;;;;0.60;0.60;;;;;;;25.37;54.34;94855.13;5134250;27;20433;-63
2023/10/25 10:52:53;;;;;;;0.50;0.30;;;;;;;25.83;53.20;94796.59;5133421;27;21006;-65
2023/10/25 10:55:22;;;;;;;5.00;0.87;;;;;;;25.98;54.18;94843.63;5133769;27;20434;-65
2023/10/25 10:57:52;;;;;;;0.67;0.50;;;;;;;26.51;51.77;94841.22;5133415;27;20439;-65
2023/10/25 11:00:36;;;;;;;0.83;0.60;;;;;;;26.23;52.20;94825.56;5134090;27;20509;-65
2023/10/25 11:03:06;;;;;;;0.60;0.53;;;;;;;25.42;53.64;94835.78;5133742;27;20526;-63
2023/10/25 11:05:37;;;;;;;1.00;1.00;;;;;;;25.22;53.76;94833.28;5133654;27;20943;-63
2023/10/25 11:08:11;;;;;;;1.80;0.50;;;;;;;25.71;54.17;94827.53;5132623;27;20438;-62
2023/10/25 11:10:40;;;;;;;1.57;1.47;;;;;;;25.57;54.32;94823.94;5133900;27;20473;-62
2023/10/25 11:13:09;;;;;;;0.70;0.60;;;;;;;25.32;54.47;94812.84;5120247;27;20438;-61
2023/10/25 11:15:39;;;;;;;0.87;0.67;;;;;;;24.93;55.56;94822.53;5133699;27;20470;-61
2023/10/25 11:18:09;;;;;;;1.70;1.00;;;;;;;25.34;55.28;94791.53;5100217;28;20449;-61
2023/10/25 11:20:41;;;;;;;10.40;0.70;;;;;;;26.03;54.90;94822.31;5127772;27;20466;-64
2023/10/25 11:23:09;;;;;;;0.70;0.70;;;;;;;26.68;52.75;94799.72;5133636;27;20435;-64
2023/10/25 11:25:39;;;;;;;0.80;0.80;;;;;;;27.21;50.59;94797.16;5133000;27;20439;-64
2023/10/25 11:28:08;;;;;;;0.50;0.47;;;;;;;26.70;50.59;94783.81;5133150;27;20523;-64
2023/10/25 11:30:36;;;;;;;0.57;0.40;;;;;;;27.66;49.94;94785.50;5128585;27;20434;-63
2023/10/25 11:33:07;;;;;;;4.33;1.90;;;;;;;27.98;51.15;94769.13;5132848;27;20857;-63
2023/10/25 11:35:42;;;;;;;2.00;1.90;;;;;;;27.42;49.37;94775.44;5132259;27;20926;-61
2023/10/25 11:38:11;;;;;;;0.80;0.47;;;;;;;28.07;49.68;94772.25;5133395;27;20441;-61